sensor_id;sensor_type;location;lat;lon;timestamp;pressure;altitude;pressure_sealevel;temperature;humidity
51031;BME280;37058;41.442;23.240;2023-03-30T00:01:08;101255.16;;;6.75;47.65
51031;BME280;37058;41.442;23.240;2023-03-30T00:03:37;101248.25;;;6.66;47.68
51031;BME280;37058;41.442;23.240;2023-03-30T00:06:08;101254.75;;;6.71;47.28
51031;BME280;37058;41.442;23.240;2023-03-30T00:08:36;101250.16;;;6.72;47.20
51031;BME280;37058;41.442;23.240;2023-03-30T00:11:12;101260.59;;;6.75;47.22
51031;BME280;37058;41.442;23.240;2023-03-30T00:13:39;101249.31;;;6.71;47.17
51031;BME280;37058;41.442;23.240;2023-03-30T00:16:09;101245.56;;;6.79;47.42
51031;BME280;37058;41.442;23.240;2023-03-30T00:18:35;101246.59;;;6.78;47.96
51031;BME280;37058;41.442;23.240;2023-03-30T00:21:02;101246.19;;;6.81;48.79
51031;BME280;37058;41.442;23.240;2023-03-30T00:23:29;101240.56;;;6.76;48.73
51031;BME280;37058;41.442;23.240;2023-03-30T00:25:55;101237.41;;;6.72;49.58
51031;BME280;37058;41.442;23.240;2023-03-30T00:28:21;101238.25;;;6.66;49.99
51031;BME280;37058;41.442;23.240;2023-03-30T00:30:48;101239.50;;;6.64;49.69
51031;BME280;37058;41.442;23.240;2023-03-30T00:33:14;101237.38;;;6.66;50.74
51031;BME280;37058;41.442;23.240;2023-03-30T00:35:40;101235.75;;;6.71;50.06
51031;BME280;37058;41.442;23.240;2023-03-30T00:38:06;101231.34;;;6.57;50.58
51031;BME280;37058;41.442;23.240;2023-03-30T00:40:33;101230.06;;;6.46;49.84
51031;BME280;37058;41.442;23.240;2023-03-30T00:43:06;101233.59;;;6.47;49.94
51031;BME280;37058;41.442;23.240;2023-03-30T00:45:35;101227.75;;;6.50;49.01
51031;BME280;37058;41.442;23.240;2023-03-30T00:50:51;101219.03;;;6.61;48.04
51031;BME280;37058;41.442;23.240;2023-03-30T00:55:54;101215.47;;;6.67;46.48
51031;BME280;37058;41.442;23.240;2023-03-30T00:58:23;101224.88;;;6.71;46.62
51031;BME280;37058;41.442;23.240;2023-03-30T01:00:50;101218.84;;;6.76;45.60
51031;BME280;37058;41.442;23.240;2023-03-30T01:03:38;101220.69;;;6.76;45.65
51031;BME280;37058;41.442;23.240;2023-03-30T01:06:09;101223.41;;;6.76;45.83
51031;BME280;37058;41.442;23.240;2023-03-30T01:08:36;101224.03;;;6.78;45.99
51031;BME280;37058;41.442;23.240;2023-03-30T01:11:05;101224.03;;;6.78;46.50
51031;BME280;37058;41.442;23.240;2023-03-30T01:13:36;101226.13;;;6.82;46.62
51031;BME280;37058;41.442;23.240;2023-03-30T01:19:37;101216.75;;;6.91;46.33
51031;BME280;37058;41.442;23.240;2023-03-30T01:23:02;101222.59;;;6.95;45.77
51031;BME280;37058;41.442;23.240;2023-03-30T01:26:20;101218.22;;;6.94;45.56
51031;BME280;37058;41.442;23.240;2023-03-30T01:28:51;101217.59;;;6.92;45.56
51031;BME280;37058;41.442;23.240;2023-03-30T01:39:45;101218.63;;;6.84;45.55
51031;BME280;37058;41.442;23.240;2023-03-30T01:42:39;101218.00;;;6.82;45.85
51031;BME280;37058;41.442;23.240;2023-03-30T01:50:58;101227.59;;;6.85;47.06
51031;BME280;37058;41.442;23.240;2023-03-30T01:54:05;101224.47;;;6.75;47.32
51031;BME280;37058;41.442;23.240;2023-03-30T01:56:40;101222.97;;;6.65;47.55
51031;BME280;37058;41.442;23.240;2023-03-30T01:59:18;101222.78;;;6.67;47.45
51031;BME280;37058;41.442;23.240;2023-03-30T02:01:45;101220.25;;;6.52;47.72
51031;BME280;37058;41.442;23.240;2023-03-30T02:04:17;101209.41;;;6.52;47.97
51031;BME280;37058;41.442;23.240;2023-03-30T02:06:50;101214.41;;;6.55;47.49
51031;BME280;37058;41.442;23.240;2023-03-30T02:09:21;101224.84;;;6.51;47.98
51031;BME280;37058;41.442;23.240;2023-03-30T02:11:50;101224.63;;;6.53;47.52
51031;BME280;37058;41.442;23.240;2023-03-30T02:14:22;101228.63;;;6.57;47.39
51031;BME280;37058;41.442;23.240;2023-03-30T02:16:56;101230.91;;;6.54;48.13
51031;BME280;37058;41.442;23.240;2023-03-30T02:19:23;101233.22;;;6.57;48.11
51031;BME280;37058;41.442;23.240;2023-03-30T02:21:49;101214.41;;;6.55;47.87
51031;BME280;37058;41.442;23.240;2023-03-30T02:24:19;101222.34;;;6.50;48.30
51031;BME280;37058;41.442;23.240;2023-03-30T02:26:49;101226.31;;;6.47;48.91
51031;BME280;37058;41.442;23.240;2023-03-30T02:29:17;101227.53;;;6.45;49.15
51031;BME280;37058;41.442;23.240;2023-03-30T02:31:45;101223.53;;;6.27;49.28
51031;BME280;37058;41.442;23.240;2023-03-30T02:40:17;101220.75;;;6.01;50.50
51031;BME280;37058;41.442;23.240;2023-03-30T02:49:14;101236.91;;;5.81;51.83
51031;BME280;37058;41.442;23.240;2023-03-30T02:51:51;101231.75;;;5.93;51.54
51031;BME280;37058;41.442;23.240;2023-03-30T02:57:35;101223.28;;;6.09;51.58
51031;BME280;37058;41.442;23.240;2023-03-30T03:00:11;101228.50;;;6.11;51.69
51031;BME280;37058;41.442;23.240;2023-03-30T03:02:47;101222.44;;;6.15;51.32
51031;BME280;37058;41.442;23.240;2023-03-30T03:05:16;101228.31;;;6.19;51.61
51031;BME280;37058;41.442;23.240;2023-03-30T03:07:42;101231.44;;;6.22;51.79
51031;BME280;37058;41.442;23.240;2023-03-30T03:10:09;101226.88;;;6.29;51.59
51031;BME280;37058;41.442;23.240;2023-03-30T03:12:35;101230.44;;;6.30;51.19
51031;BME280;37058;41.442;23.240;2023-03-30T03:15:02;101223.97;;;6.38;51.19
51031;BME280;37058;41.442;23.240;2023-03-30T03:17:30;101218.34;;;6.39;51.27
51031;BME280;37058;41.442;23.240;2023-03-30T03:20:06;101225.88;;;6.44;51.09
51031;BME280;37058;41.442;23.240;2023-03-30T03:22:35;101221.91;;;6.40;51.26
51031;BME280;37058;41.442;23.240;2023-03-30T03:25:01;101221.91;;;6.33;50.61
51031;BME280;37058;41.442;23.240;2023-03-30T03:27:27;101220.63;;;6.29;50.63
51031;BME280;37058;41.442;23.240;2023-03-30T03:29:53;101224.38;;;6.35;50.42
51031;BME280;37058;41.442;23.240;2023-03-30T03:32:19;101217.72;;;6.31;50.30
51031;BME280;37058;41.442;23.240;2023-03-30T03:34:45;101227.72;;;6.23;49.91
51031;BME280;37058;41.442;23.240;2023-03-30T03:37:11;101221.00;;;6.19;49.97
51031;BME280;37058;41.442;23.240;2023-03-30T03:39:37;101213.69;;;6.20;49.59
51031;BME280;37058;41.442;23.240;2023-03-30T03:42:04;101223.09;;;6.17;49.70
51031;BME280;37058;41.442;23.240;2023-03-30T03:44:30;101212.25;;;6.17;49.91
51031;BME280;37058;41.442;23.240;2023-03-30T03:46:56;101209.13;;;6.20;50.52
51031;BME280;37058;41.442;23.240;2023-03-30T03:49:22;101224.13;;;6.16;50.74
51031;BME280;37058;41.442;23.240;2023-03-30T03:51:48;101232.47;;;6.08;50.91
51031;BME280;37058;41.442;23.240;2023-03-30T03:54:14;101249.34;;;6.10;50.80
51031;BME280;37058;41.442;23.240;2023-03-30T03:56:41;101257.31;;;6.18;50.28
51031;BME280;37058;41.442;23.240;2023-03-30T03:59:07;101261.50;;;6.27;50.03
51031;BME280;37058;41.442;23.240;2023-03-30T04:01:32;101250.06;;;6.32;49.80
51031;BME280;37058;41.442;23.240;2023-03-30T04:03:58;101243.59;;;6.40;49.59
51031;BME280;37058;41.442;23.240;2023-03-30T04:06:25;101257.81;;;6.42;49.28
51031;BME280;37058;41.442;23.240;2023-03-30T04:08:51;101237.75;;;6.43;49.41
51031;BME280;37058;41.442;23.240;2023-03-30T04:11:17;101234.44;;;6.41;49.50
51031;BME280;37058;41.442;23.240;2023-03-30T04:13:43;101242.16;;;6.31;49.69
51031;BME280;37058;41.442;23.240;2023-03-30T04:16:09;101246.72;;;6.23;49.76
51031;BME280;37058;41.442;23.240;2023-03-30T04:18:35;101246.84;;;6.15;50.09
51031;BME280;37058;41.442;23.240;2023-03-30T04:21:05;101253.34;;;6.14;49.87
51031;BME280;37058;41.442;23.240;2023-03-30T04:23:33;101250.22;;;6.11;50.06
51031;BME280;37058;41.442;23.240;2023-03-30T04:26:00;101249.84;;;6.20;50.08
51031;BME280;37058;41.442;23.240;2023-03-30T04:28:28;101250.66;;;6.27;50.09
51031;BME280;37058;41.442;23.240;2023-03-30T04:31:06;101256.94;;;6.28;50.82
51031;BME280;37058;41.442;23.240;2023-03-30T04:33:36;101264.00;;;6.22;51.17
51031;BME280;37058;41.442;23.240;2023-03-30T04:36:11;101255.00;;;6.15;51.52
51031;BME280;37058;41.442;23.240;2023-03-30T04:38:46;101254.38;;;6.13;51.61
51031;BME280;37058;41.442;23.240;2023-03-30T04:41:31;101257.94;;;6.14;51.71
51031;BME280;37058;41.442;23.240;2023-03-30T04:44:06;101252.94;;;6.17;51.45
51031;BME280;37058;41.442;23.240;2023-03-30T04:46:34;101261.50;;;6.21;50.78
51031;BME280;37058;41.442;23.240;2023-03-30T04:49:01;101262.16;;;6.23;50.99
51031;BME280;37058;41.442;23.240;2023-03-30T04:51:28;101261.09;;;6.24;51.24
51031;BME280;37058;41.442;23.240;2023-03-30T04:53:54;101278.19;;;6.24;51.03
51031;BME280;37058;41.442;23.240;2023-03-30T04:56:20;101284.28;;;6.26;50.99
51031;BME280;37058;41.442;23.240;2023-03-30T04:58:46;101284.28;;;6.26;50.82
51031;BME280;37058;41.442;23.240;2023-03-30T05:01:12;101284.28;;;6.26;50.62
51031;BME280;37058;41.442;23.240;2023-03-30T05:03:39;101275.72;;;6.29;50.69
51031;BME280;37058;41.442;23.240;2023-03-30T05:06:05;101274.91;;;6.36;50.23
51031;BME280;37058;41.442;23.240;2023-03-30T05:08:31;101282.44;;;6.34;50.09
51031;BME280;37058;41.442;23.240;2023-03-30T05:11:01;101291.22;;;6.42;49.60
51031;BME280;37058;41.442;23.240;2023-03-30T05:13:30;101295.19;;;6.46;49.69
51031;BME280;37058;41.442;23.240;2023-03-30T05:15:56;101295.41;;;6.51;49.13
51031;BME280;37058;41.442;23.240;2023-03-30T05:18:23;101296.47;;;6.57;49.08
51031;BME280;37058;41.442;23.240;2023-03-30T05:20:49;101291.69;;;6.59;49.69
51031;BME280;37058;41.442;23.240;2023-03-30T05:23:15;101288.13;;;6.59;49.52
51031;BME280;37058;41.442;23.240;2023-03-30T05:25:42;101290.22;;;6.63;49.56
51031;BME280;37058;41.442;23.240;2023-03-30T05:28:13;101288.34;;;6.64;49.90
51031;BME280;37058;41.442;23.240;2023-03-30T05:30:39;101287.31;;;6.65;50.32
51031;BME280;37058;41.442;23.240;2023-03-30T05:33:05;101292.97;;;6.77;49.89
51031;BME280;37058;41.442;23.240;2023-03-30T05:35:35;101293.41;;;6.87;49.55
51031;BME280;37058;41.442;23.240;2023-03-30T05:38:02;101294.25;;;7.01;48.89
51031;BME280;37058;41.442;23.240;2023-03-30T05:40:29;101294.50;;;7.19;48.68
51031;BME280;37058;41.442;23.240;2023-03-30T05:42:56;101292.78;;;7.38;48.19
51031;BME280;37058;41.442;23.240;2023-03-30T05:45:22;101289.22;;;7.51;47.59
51031;BME280;37058;41.442;23.240;2023-03-30T05:47:47;101292.56;;;7.66;46.45
51031;BME280;37058;41.442;23.240;2023-03-30T05:50:13;101291.25;;;7.82;45.73
51031;BME280;37058;41.442;23.240;2023-03-30T05:52:40;101293.53;;;7.98;45.48
51031;BME280;37058;41.442;23.240;2023-03-30T05:55:06;101288.47;;;8.09;44.80
51031;BME280;37058;41.442;23.240;2023-03-30T05:57:32;101297.41;;;8.22;44.72
51031;BME280;37058;41.442;23.240;2023-03-30T05:59:58;101295.25;;;8.44;44.58
51031;BME280;37058;41.442;23.240;2023-03-30T06:02:24;101300.41;;;8.59;44.00
51031;BME280;37058;41.442;23.240;2023-03-30T06:04:51;101297.41;;;8.74;43.43
51031;BME280;37058;41.442;23.240;2023-03-30T06:07:17;101298.00;;;9.08;43.55
51031;BME280;37058;41.442;23.240;2023-03-30T06:09:45;101291.31;;;9.29;42.68
51031;BME280;37058;41.442;23.240;2023-03-30T06:12:11;101298.00;;;9.33;42.16
51031;BME280;37058;41.442;23.240;2023-03-30T06:14:37;101310.97;;;9.38;42.12
51031;BME280;37058;41.442;23.240;2023-03-30T06:17:03;101299.94;;;9.51;42.27
51031;BME280;37058;41.442;23.240;2023-03-30T06:19:29;101301.94;;;9.62;41.63
51031;BME280;37058;41.442;23.240;2023-03-30T06:21:55;101297.69;;;9.85;41.59
51031;BME280;37058;41.442;23.240;2023-03-30T06:24:20;101305.16;;;10.14;40.94
51031;BME280;37058;41.442;23.240;2023-03-30T06:26:47;101305.00;;;10.46;40.32
51031;BME280;37058;41.442;23.240;2023-03-30T06:29:14;101302.13;;;11.13;39.63
51031;BME280;37058;41.442;23.240;2023-03-30T06:31:40;101305.63;;;11.79;38.18
51031;BME280;37058;41.442;23.240;2023-03-30T06:34:06;101302.63;;;12.85;35.45
51031;BME280;37058;41.442;23.240;2023-03-30T06:36:32;101297.69;;;15.04;32.87
51031;BME280;37058;41.442;23.240;2023-03-30T06:38:58;101297.72;;;18.46;27.88
51031;BME280;37058;41.442;23.240;2023-03-30T06:41:26;101284.47;;;21.75;24.14
51031;BME280;37058;41.442;23.240;2023-03-30T06:43:52;101284.22;;;24.86;20.83
51031;BME280;37058;41.442;23.240;2023-03-30T06:46:18;101284.97;;;27.05;18.47
51031;BME280;37058;41.442;23.240;2023-03-30T06:48:44;101284.22;;;26.96;17.64
51031;BME280;37058;41.442;23.240;2023-03-30T06:51:10;101289.97;;;25.98;18.51
51031;BME280;37058;41.442;23.240;2023-03-30T06:53:37;101289.72;;;26.71;18.02
51031;BME280;37058;41.442;23.240;2023-03-30T06:56:03;101294.06;;;25.45;19.15
51031;BME280;37058;41.442;23.240;2023-03-30T06:58:29;101297.53;;;29.13;16.20
51031;BME280;37058;41.442;23.240;2023-03-30T07:00:55;101292.63;;;31.23;14.43
51031;BME280;37058;41.442;23.240;2023-03-30T07:03:22;101286.50;;;33.20;13.12
51031;BME280;37058;41.442;23.240;2023-03-30T07:05:49;101299.94;;;34.12;12.56
51031;BME280;37058;41.442;23.240;2023-03-30T07:08:16;101289.13;;;31.10;13.71
51031;BME280;37058;41.442;23.240;2023-03-30T07:10:43;101282.44;;;26.49;16.85
51031;BME280;37058;41.442;23.240;2023-03-30T07:13:09;101296.97;;;24.44;18.86
51031;BME280;37058;41.442;23.240;2023-03-30T07:15:35;101287.22;;;22.21;19.88
51031;BME280;37058;41.442;23.240;2023-03-30T07:18:01;101294.81;;;21.41;21.37
51031;BME280;37058;41.442;23.240;2023-03-30T07:20:27;101303.84;;;19.90;21.77
51031;BME280;37058;41.442;23.240;2023-03-30T07:22:53;101301.66;;;18.90;23.44
51031;BME280;37058;41.442;23.240;2023-03-30T07:25:19;101286.16;;;18.34;24.74
51031;BME280;37058;41.442;23.240;2023-03-30T07:27:45;101289.56;;;18.05;23.59
51031;BME280;37058;41.442;23.240;2023-03-30T07:30:12;101294.09;;;17.55;25.58
51031;BME280;37058;41.442;23.240;2023-03-30T07:32:39;101286.34;;;16.96;25.91
51031;BME280;37058;41.442;23.240;2023-03-30T07:35:06;101293.94;;;16.47;26.97
51031;BME280;37058;41.442;23.240;2023-03-30T07:37:33;101299.06;;;16.13;27.78
51031;BME280;37058;41.442;23.240;2023-03-30T07:40:00;101298.47;;;15.64;28.31
51031;BME280;37058;41.442;23.240;2023-03-30T07:42:26;101296.81;;;15.25;27.95
51031;BME280;37058;41.442;23.240;2023-03-30T07:44:51;101294.66;;;15.32;28.42
51031;BME280;37058;41.442;23.240;2023-03-30T07:47:17;101294.66;;;15.32;28.41
51031;BME280;37058;41.442;23.240;2023-03-30T07:49:43;101292.00;;;15.43;28.89
51031;BME280;37058;41.442;23.240;2023-03-30T07:52:09;101299.88;;;15.34;29.18
51031;BME280;37058;41.442;23.240;2023-03-30T07:54:35;101301.47;;;15.25;29.56
51031;BME280;37058;41.442;23.240;2023-03-30T07:57:01;101295.53;;;15.06;29.92
51031;BME280;37058;41.442;23.240;2023-03-30T07:59:27;101293.41;;;14.86;29.18
51031;BME280;37058;41.442;23.240;2023-03-30T08:01:52;101289.78;;;14.80;29.50
51031;BME280;37058;41.442;23.240;2023-03-30T08:04:20;101293.41;;;14.86;29.16
51031;BME280;37058;41.442;23.240;2023-03-30T08:06:49;101290.69;;;14.91;28.84
51031;BME280;37058;41.442;23.240;2023-03-30T08:09:17;101291.31;;;14.98;28.59
51031;BME280;37058;41.442;23.240;2023-03-30T08:11:43;101287.81;;;15.03;29.48
51031;BME280;37058;41.442;23.240;2023-03-30T08:14:09;101288.38;;;15.05;28.52
51031;BME280;37058;41.442;23.240;2023-03-30T08:16:35;101283.75;;;15.10;28.22
51031;BME280;37058;41.442;23.240;2023-03-30T08:19:01;101285.66;;;15.10;28.38
51031;BME280;37058;41.442;23.240;2023-03-30T08:21:27;101285.25;;;14.96;28.97
51031;BME280;37058;41.442;23.240;2023-03-30T08:23:54;101281.91;;;14.62;29.40
51031;BME280;37058;41.442;23.240;2023-03-30T08:26:27;101277.84;;;14.69;29.54
51031;BME280;37058;41.442;23.240;2023-03-30T08:28:53;101277.81;;;14.91;28.86
51031;BME280;37058;41.442;23.240;2023-03-30T08:31:19;101275.75;;;15.09;28.60
51031;BME280;37058;41.442;23.240;2023-03-30T08:33:47;101266.50;;;15.20;28.53
51031;BME280;37058;41.442;23.240;2023-03-30T08:36:14;101267.94;;;14.95;28.70
51031;BME280;37058;41.442;23.240;2023-03-30T08:38:40;101271.09;;;15.09;28.55
51031;BME280;37058;41.442;23.240;2023-03-30T08:41:49;101266.50;;;15.20;28.42
51031;BME280;37058;41.442;23.240;2023-03-30T08:44:42;101266.00;;;15.28;28.33
51031;BME280;37058;41.442;23.240;2023-03-30T08:47:27;101264.69;;;15.36;28.15
51031;BME280;37058;41.442;23.240;2023-03-30T08:50:07;101262.81;;;15.47;28.05
51031;BME280;37058;41.442;23.240;2023-03-30T08:52:36;101261.84;;;15.63;27.68
51031;BME280;37058;41.442;23.240;2023-03-30T08:55:03;101246.97;;;15.64;27.87
51031;BME280;37058;41.442;23.240;2023-03-30T09:02:51;101251.94;;;15.67;27.39
51031;BME280;37058;41.442;23.240;2023-03-30T09:05:31;101244.91;;;15.81;26.99
51031;BME280;37058;41.442;23.240;2023-03-30T09:08:21;101243.41;;;15.69;27.43
51031;BME280;37058;41.442;23.240;2023-03-30T09:11:00;101235.94;;;15.59;27.94
51031;BME280;37058;41.442;23.240;2023-03-30T09:13:34;101244.66;;;15.46;27.66
51031;BME280;37058;41.442;23.240;2023-03-30T09:16:21;101235.22;;;15.36;27.59
51031;BME280;37058;41.442;23.240;2023-03-30T09:18:56;101230.88;;;15.41;27.45
51031;BME280;37058;41.442;23.240;2023-03-30T09:21:30;101223.06;;;15.27;27.62
51031;BME280;37058;41.442;23.240;2023-03-30T09:23:59;101224.72;;;15.28;28.05
51031;BME280;37058;41.442;23.240;2023-03-30T09:26:43;101218.66;;;15.26;28.44
51031;BME280;37058;41.442;23.240;2023-03-30T09:29:33;101220.81;;;15.24;28.38
51031;BME280;37058;41.442;23.240;2023-03-30T09:32:32;101213.19;;;15.31;29.17
51031;BME280;37058;41.442;23.240;2023-03-30T09:35:18;101217.81;;;15.26;28.33
51031;BME280;37058;41.442;23.240;2023-03-30T09:37:46;101211.00;;;15.33;28.25
51031;BME280;37058;41.442;23.240;2023-03-30T09:43:29;101205.50;;;15.33;28.65
51031;BME280;37058;41.442;23.240;2023-03-30T09:45:59;101199.59;;;15.14;28.46
51031;BME280;37058;41.442;23.240;2023-03-30T09:48:26;101200.75;;;15.24;28.79
51031;BME280;37058;41.442;23.240;2023-03-30T09:50:52;101195.53;;;15.22;27.94
51031;BME280;37058;41.442;23.240;2023-03-30T09:53:24;101182.81;;;15.16;28.25
51031;BME280;37058;41.442;23.240;2023-03-30T09:56:06;101179.31;;;15.31;28.09
51031;BME280;37058;41.442;23.240;2023-03-30T09:58:34;101174.09;;;15.29;28.42
51031;BME280;37058;41.442;23.240;2023-03-30T10:01:17;101162.59;;;15.37;28.12
51031;BME280;37058;41.442;23.240;2023-03-30T10:04:04;101159.28;;;15.35;28.49
51031;BME280;37058;41.442;23.240;2023-03-30T10:06:46;101159.28;;;15.35;28.30
51031;BME280;37058;41.442;23.240;2023-03-30T10:09:13;101160.63;;;15.33;28.17
51031;BME280;37058;41.442;23.240;2023-03-30T10:11:48;101154.03;;;15.39;28.22
51031;BME280;37058;41.442;23.240;2023-03-30T10:14:33;101154.06;;;15.44;28.07
51031;BME280;37058;41.442;23.240;2023-03-30T10:17:01;101137.88;;;15.53;28.13
51031;BME280;37058;41.442;23.240;2023-03-30T10:19:29;101137.13;;;15.68;28.38
51031;BME280;37058;41.442;23.240;2023-03-30T10:21:59;101130.59;;;15.79;27.99
51031;BME280;37058;41.442;23.240;2023-03-30T10:24:31;101133.09;;;15.86;28.01
51031;BME280;37058;41.442;23.240;2023-03-30T10:27:11;101125.66;;;15.86;28.51
51031;BME280;37058;41.442;23.240;2023-03-30T10:29:37;101122.66;;;15.98;27.83
51031;BME280;37058;41.442;23.240;2023-03-30T10:32:20;101121.53;;;15.89;28.37
51031;BME280;37058;41.442;23.240;2023-03-30T10:34:58;101111.06;;;15.91;28.66
51031;BME280;37058;41.442;23.240;2023-03-30T10:37:33;101108.34;;;15.96;28.16
51031;BME280;37058;41.442;23.240;2023-03-30T10:40:08;101105.31;;;16.08;28.20
51031;BME280;37058;41.442;23.240;2023-03-30T10:42:36;101100.09;;;16.16;27.56
51031;BME280;37058;41.442;23.240;2023-03-30T10:45:05;101098.75;;;16.24;27.28
51031;BME280;37058;41.442;23.240;2023-03-30T10:47:50;101087.97;;;16.22;27.28
51031;BME280;37058;41.442;23.240;2023-03-30T10:54:06;101086.59;;;16.35;27.59
51031;BME280;37058;41.442;23.240;2023-03-30T10:59:28;101078.06;;;16.62;27.86
51031;BME280;37058;41.442;23.240;2023-03-30T11:10:55;101047.16;;;16.81;26.86
51031;BME280;37058;41.442;23.240;2023-03-30T11:13:32;101046.88;;;16.77;27.93
51031;BME280;37058;41.442;23.240;2023-03-30T11:19:48;101025.94;;;16.86;28.56
51031;BME280;37058;41.442;23.240;2023-03-30T11:25:14;101024.28;;;16.80;27.75
51031;BME280;37058;41.442;23.240;2023-03-30T11:28:10;101024.56;;;16.84;28.35
51031;BME280;37058;41.442;23.240;2023-03-30T11:30:40;101021.22;;;16.92;27.46
51031;BME280;37058;41.442;23.240;2023-03-30T11:35:54;101012.91;;;17.02;26.87
51031;BME280;37058;41.442;23.240;2023-03-30T11:41:21;101003.44;;;17.19;26.62
51031;BME280;37058;41.442;23.240;2023-03-30T11:43:53;100997.88;;;17.29;26.98
51031;BME280;37058;41.442;23.240;2023-03-30T11:46:58;100997.00;;;17.39;27.35
51031;BME280;37058;41.442;23.240;2023-03-30T11:52:29;100983.25;;;17.83;27.65
51031;BME280;37058;41.442;23.240;2023-03-30T12:04:10;100968.22;;;18.29;26.34
51031;BME280;37058;41.442;23.240;2023-03-30T12:07:00;100957.38;;;18.32;25.57
51031;BME280;37058;41.442;23.240;2023-03-30T12:09:45;100958.94;;;18.44;26.26
51031;BME280;37058;41.442;23.240;2023-03-30T12:12:16;100963.25;;;18.55;26.73
51031;BME280;37058;41.442;23.240;2023-03-30T12:15:14;100950.75;;;18.57;26.45
51031;BME280;37058;41.442;23.240;2023-03-30T12:21:31;100950.59;;;18.49;26.27
51031;BME280;37058;41.442;23.240;2023-03-30T12:24:32;100949.88;;;18.62;26.78
51031;BME280;37058;41.442;23.240;2023-03-30T12:27:00;100942.59;;;18.71;26.25
51031;BME280;37058;41.442;23.240;2023-03-30T12:29:50;100947.50;;;18.79;26.11
51031;BME280;37058;41.442;23.240;2023-03-30T12:32:28;100932.72;;;18.89;25.57
51031;BME280;37058;41.442;23.240;2023-03-30T12:34:54;100931.88;;;18.89;24.85
51031;BME280;37058;41.442;23.240;2023-03-30T12:37:34;100925.47;;;18.93;25.68
51031;BME280;37058;41.442;23.240;2023-03-30T12:40:19;100921.53;;;18.99;25.76
51031;BME280;37058;41.442;23.240;2023-03-30T12:43:30;100921.69;;;19.08;25.85
51031;BME280;37058;41.442;23.240;2023-03-30T12:46:19;100913.31;;;19.13;25.29
51031;BME280;37058;41.442;23.240;2023-03-30T12:51:59;100910.00;;;19.11;25.67
51031;BME280;37058;41.442;23.240;2023-03-30T13:05:54;100891.44;;;18.93;25.68
51031;BME280;37058;41.442;23.240;2023-03-30T13:11:24;100879.91;;;18.86;25.42
51031;BME280;37058;41.442;23.240;2023-03-30T13:13:59;100866.13;;;18.80;25.46
51031;BME280;37058;41.442;23.240;2023-03-30T13:25:02;100848.06;;;18.64;25.77
51031;BME280;37058;41.442;23.240;2023-03-30T13:27:35;100843.69;;;18.58;25.65
51031;BME280;37058;41.442;23.240;2023-03-30T13:30:09;100841.53;;;18.55;26.22
51031;BME280;37058;41.442;23.240;2023-03-30T13:35:46;100826.69;;;18.46;26.40
51031;BME280;37058;41.442;23.240;2023-03-30T13:38:28;100831.84;;;18.33;26.85
51031;BME280;37058;41.442;23.240;2023-03-30T13:44:11;100824.84;;;18.17;27.07
51031;BME280;37058;41.442;23.240;2023-03-30T13:46:52;100817.69;;;18.16;26.82
51031;BME280;37058;41.442;23.240;2023-03-30T13:52:04;100822.59;;;18.19;26.32
51031;BME280;37058;41.442;23.240;2023-03-30T13:54:37;100795.56;;;18.16;26.24
51031;BME280;37058;41.442;23.240;2023-03-30T13:57:20;100796.97;;;18.13;26.38
51031;BME280;37058;41.442;23.240;2023-03-30T13:59:57;100792.31;;;18.09;26.69
51031;BME280;37058;41.442;23.240;2023-03-30T14:02:28;100790.09;;;18.11;26.84
51031;BME280;37058;41.442;23.240;2023-03-30T14:05:21;100788.38;;;18.15;27.26
51031;BME280;37058;41.442;23.240;2023-03-30T14:07:47;100786.06;;;18.22;27.52
51031;BME280;37058;41.442;23.240;2023-03-30T14:10:17;100780.47;;;18.27;27.16
51031;BME280;37058;41.442;23.240;2023-03-30T14:12:47;100778.19;;;18.34;27.09
51031;BME280;37058;41.442;23.240;2023-03-30T14:15:23;100770.97;;;18.38;26.81
51031;BME280;37058;41.442;23.240;2023-03-30T14:17:57;100766.78;;;18.41;26.84
51031;BME280;37058;41.442;23.240;2023-03-30T14:20:46;100762.59;;;18.44;27.01
51031;BME280;37058;41.442;23.240;2023-03-30T14:23:40;100765.56;;;18.47;26.65
51031;BME280;37058;41.442;23.240;2023-03-30T14:26:24;100756.69;;;18.50;26.68
51031;BME280;37058;41.442;23.240;2023-03-30T14:29:08;100751.41;;;18.54;26.62
51031;BME280;37058;41.442;23.240;2023-03-30T14:31:40;100749.13;;;18.56;26.78
51031;BME280;37058;41.442;23.240;2023-03-30T14:34:28;100739.72;;;18.57;26.61
51031;BME280;37058;41.442;23.240;2023-03-30T14:36:59;100742.78;;;18.55;26.43
51031;BME280;37058;41.442;23.240;2023-03-30T14:39:27;100738.06;;;18.56;26.99
51031;BME280;37058;41.442;23.240;2023-03-30T14:41:54;100728.38;;;18.58;26.61
51031;BME280;37058;41.442;23.240;2023-03-30T14:44:22;100734.94;;;18.62;26.81
51031;BME280;37058;41.442;23.240;2023-03-30T14:46:52;100723.88;;;18.62;26.70
51031;BME280;37058;41.442;23.240;2023-03-30T14:49:27;100730.53;;;18.61;26.91
51031;BME280;37058;41.442;23.240;2023-03-30T14:52:20;100729.72;;;18.61;26.81
51031;BME280;37058;41.442;23.240;2023-03-30T14:54:48;100723.88;;;18.62;26.79
51031;BME280;37058;41.442;23.240;2023-03-30T14:57:16;100720.28;;;18.62;26.78
51031;BME280;37058;41.442;23.240;2023-03-30T14:59:59;100720.81;;;18.64;27.06
51031;BME280;37058;41.442;23.240;2023-03-30T15:02:31;100723.59;;;18.64;27.27
51031;BME280;37058;41.442;23.240;2023-03-30T15:04:58;100725.28;;;18.60;27.58
51031;BME280;37058;41.442;23.240;2023-03-30T15:07:30;100725.63;;;18.58;27.07
51031;BME280;37058;41.442;23.240;2023-03-30T15:09:58;100727.25;;;18.59;27.00
51031;BME280;37058;41.442;23.240;2023-03-30T15:12:33;100730.28;;;18.58;27.55
51031;BME280;37058;41.442;23.240;2023-03-30T15:15:04;100727.44;;;18.63;28.18